sensor_id;sensor_type;location;lat;lon;timestamp;pressure;altitude;pressure_sealevel;temperature;humidity
43125;BME280;49182;50.788;7.318;2023-04-19T00:01:01;101771.00;;;12.06;63.65
43125;BME280;49182;50.788;7.318;2023-04-19T00:03:29;101771.72;;;12.08;64.01
43125;BME280;49182;50.788;7.318;2023-04-19T00:05:56;101770.16;;;12.05;63.97
43125;BME280;49182;50.788;7.318;2023-04-19T00:08:23;101757.88;;;12.04;64.30
43125;BME280;49182;50.788;7.318;2023-04-19T00:10:49;101764.47;;;11.99;64.20
43125;BME280;49182;50.788;7.318;2023-04-19T00:13:16;101758.84;;;12.03;64.34
43125;BME280;49182;50.788;7.318;2023-04-19T00:15:42;101759.63;;;11.93;64.92
43125;BME280;49182;50.788;7.318;2023-04-19T00:18:09;101741.81;;;11.84;64.99
43125;BME280;49182;50.788;7.318;2023-04-19T00:20:37;101736.03;;;11.79;64.83
43125;BME280;49182;50.788;7.318;2023-04-19T00:23:03;101765.66;;;11.95;64.92
43125;BME280;49182;50.788;7.318;2023-04-19T00:25:30;101756.28;;;11.91;65.04
43125;BME280;49182;50.788;7.318;2023-04-19T00:27:57;101714.53;;;11.70;64.89
43125;BME280;49182;50.788;7.318;2023-04-19T00:30:23;101731.78;;;11.76;65.12
43125;BME280;49182;50.788;7.318;2023-04-19T00:32:50;101718.50;;;11.65;65.47
43125;BME280;49182;50.788;7.318;2023-04-19T00:35:17;101762.03;;;11.85;65.72
43125;BME280;49182;50.788;7.318;2023-04-19T00:37:46;101757.06;;;11.80;66.14
43125;BME280;49182;50.788;7.318;2023-04-19T00:40:12;101749.38;;;11.77;65.76
43125;BME280;49182;50.788;7.318;2023-04-19T00:42:39;101752.25;;;11.85;65.72
43125;BME280;49182;50.788;7.318;2023-04-19T00:45:07;101748.81;;;11.85;65.95
43125;BME280;49182;50.788;7.318;2023-04-19T00:47:35;101748.06;;;11.83;66.19
43125;BME280;49182;50.788;7.318;2023-04-19T00:50:03;101747.09;;;11.84;66.16
43125;BME280;49182;50.788;7.318;2023-04-19T00:52:31;101719.19;;;11.67;66.18
43125;BME280;49182;50.788;7.318;2023-04-19T00:55:00;101741.19;;;11.80;66.54
43125;BME280;49182;50.788;7.318;2023-04-19T00:57:27;101741.31;;;11.79;66.82
43125;BME280;49182;50.788;7.318;2023-04-19T00:59:56;101738.69;;;11.79;66.63
43125;BME280;49182;50.788;7.318;2023-04-19T01:02:22;101707.28;;;11.61;66.57
43125;BME280;49182;50.788;7.318;2023-04-19T01:04:49;101725.88;;;11.72;66.61
43125;BME280;49182;50.788;7.318;2023-04-19T01:07:16;101728.22;;;11.64;67.13
43125;BME280;49182;50.788;7.318;2023-04-19T01:09:45;101723.59;;;11.55;66.96
43125;BME280;49182;50.788;7.318;2023-04-19T01:12:13;101715.63;;;11.44;67.97
43125;BME280;49182;50.788;7.318;2023-04-19T01:14:41;101718.28;;;11.44;68.11
43125;BME280;49182;50.788;7.318;2023-04-19T01:17:08;101725.19;;;11.34;68.23
43125;BME280;49182;50.788;7.318;2023-04-19T01:19:35;101684.91;;;11.07;68.75
43125;BME280;49182;50.788;7.318;2023-04-19T01:22:02;101723.44;;;11.22;69.22
43125;BME280;49182;50.788;7.318;2023-04-19T01:24:30;101714.81;;;11.07;69.58
43125;BME280;49182;50.788;7.318;2023-04-19T01:26:56;101717.69;;;11.04;69.91
43125;BME280;49182;50.788;7.318;2023-04-19T01:29:23;101712.84;;;10.98;70.57
43125;BME280;49182;50.788;7.318;2023-04-19T01:31:50;101685.13;;;10.67;70.54
43125;BME280;49182;50.788;7.318;2023-04-19T01:34:16;101723.09;;;10.90;71.07
43125;BME280;49182;50.788;7.318;2023-04-19T01:36:43;101715.94;;;10.92;71.43
43125;BME280;49182;50.788;7.318;2023-04-19T01:39:11;101710.34;;;10.84;71.87
43125;BME280;49182;50.788;7.318;2023-04-19T01:41:40;101681.00;;;10.63;72.20
43125;BME280;49182;50.788;7.318;2023-04-19T01:44:08;101690.84;;;10.61;72.34
43125;BME280;49182;50.788;7.318;2023-04-19T01:46:35;101710.13;;;10.62;72.44
43125;BME280;49182;50.788;7.318;2023-04-19T01:49:02;101688.31;;;10.47;72.96
43125;BME280;49182;50.788;7.318;2023-04-19T01:51:29;101690.63;;;10.39;73.01
43125;BME280;49182;50.788;7.318;2023-04-19T01:53:55;101707.22;;;10.41;73.10
43125;BME280;49182;50.788;7.318;2023-04-19T01:56:22;101698.78;;;10.36;73.44
43125;BME280;49182;50.788;7.318;2023-04-19T01:58:50;101703.41;;;10.32;73.92
43125;BME280;49182;50.788;7.318;2023-04-19T02:01:17;101708.06;;;10.29;74.09
43125;BME280;49182;50.788;7.318;2023-04-19T02:03:43;101700.78;;;10.32;75.04
43125;BME280;49182;50.788;7.318;2023-04-19T02:06:10;101700.88;;;10.31;75.62
43125;BME280;49182;50.788;7.318;2023-04-19T02:08:37;101655.16;;;10.05;76.05
43125;BME280;49182;50.788;7.318;2023-04-19T02:11:05;101654.41;;;10.03;75.98
43125;BME280;49182;50.788;7.318;2023-04-19T02:13:32;101693.69;;;10.33;76.04
43125;BME280;49182;50.788;7.318;2023-04-19T02:16:00;101687.16;;;10.26;76.28
43125;BME280;49182;50.788;7.318;2023-04-19T02:18:27;101687.38;;;10.23;76.22
43125;BME280;49182;50.788;7.318;2023-04-19T02:20:55;101691.06;;;10.20;76.40
43125;BME280;49182;50.788;7.318;2023-04-19T02:23:22;101689.03;;;10.11;76.26
43125;BME280;49182;50.788;7.318;2023-04-19T02:25:49;101658.06;;;9.88;76.58
43125;BME280;49182;50.788;7.318;2023-04-19T02:28:15;101685.44;;;9.99;76.60
43125;BME280;49182;50.788;7.318;2023-04-19T02:30:43;101676.66;;;9.86;77.13
43125;BME280;49182;50.788;7.318;2023-04-19T02:33:11;101690.56;;;9.88;77.09
43125;BME280;49182;50.788;7.318;2023-04-19T02:35:37;101678.66;;;9.83;77.77
43125;BME280;49182;50.788;7.318;2023-04-19T02:38:04;101694.19;;;9.87;77.49
43125;BME280;49182;50.788;7.318;2023-04-19T02:40:30;101655.53;;;9.61;77.42
43125;BME280;49182;50.788;7.318;2023-04-19T02:42:57;101682.88;;;9.85;78.03
43125;BME280;49182;50.788;7.318;2023-04-19T02:45:24;101689.84;;;9.86;78.28
43125;BME280;49182;50.788;7.318;2023-04-19T02:47:53;101691.31;;;9.90;78.56
43125;BME280;49182;50.788;7.318;2023-04-19T02:50:21;101687.53;;;9.94;78.64
43125;BME280;49182;50.788;7.318;2023-04-19T02:52:49;101678.13;;;9.90;78.70
43125;BME280;49182;50.788;7.318;2023-04-19T02:55:17;101671.16;;;9.89;78.80
43125;BME280;49182;50.788;7.318;2023-04-19T02:57:47;101683.41;;;10.03;79.15
43125;BME280;49182;50.788;7.318;2023-04-19T03:00:14;101685.97;;;10.04;79.07
43125;BME280;49182;50.788;7.318;2023-04-19T03:02:50;101683.22;;;10.06;79.64
43125;BME280;49182;50.788;7.318;2023-04-19T03:05:17;101683.94;;;10.08;79.62
43125;BME280;49182;50.788;7.318;2023-04-19T03:07:45;101685.66;;;10.09;79.61
43125;BME280;49182;50.788;7.318;2023-04-19T03:10:12;101664.00;;;10.04;79.70
43125;BME280;49182;50.788;7.318;2023-04-19T03:12:39;101676.88;;;10.08;80.10
43125;BME280;49182;50.788;7.318;2023-04-19T03:15:07;101674.25;;;10.08;80.17
43125;BME280;49182;50.788;7.318;2023-04-19T03:17:33;101666.56;;;10.05;80.47
43125;BME280;49182;50.788;7.318;2023-04-19T03:20:00;101664.53;;;10.09;80.09
43125;BME280;49182;50.788;7.318;2023-04-19T03:22:28;101643.31;;;9.98;80.32
43125;BME280;49182;50.788;7.318;2023-04-19T03:24:56;101677.41;;;10.13;80.37
43125;BME280;49182;50.788;7.318;2023-04-19T03:27:23;101621.03;;;9.89;80.50
43125;BME280;49182;50.788;7.318;2023-04-19T03:29:56;101670.03;;;10.19;80.81
43125;BME280;49182;50.788;7.318;2023-04-19T03:32:23;101667.09;;;10.23;80.70
43125;BME280;49182;50.788;7.318;2023-04-19T03:34:50;101661.94;;;10.22;81.18
43125;BME280;49182;50.788;7.318;2023-04-19T03:37:16;101659.91;;;10.25;81.36
43125;BME280;49182;50.788;7.318;2023-04-19T03:39:44;101628.44;;;10.09;81.52
43125;BME280;49182;50.788;7.318;2023-04-19T03:42:15;101660.13;;;10.35;81.16
43125;BME280;49182;50.788;7.318;2023-04-19T03:45:00;101658.44;;;10.34;81.14
43125;BME280;49182;50.788;7.318;2023-04-19T03:47:29;101658.00;;;10.40;81.05
43125;BME280;49182;50.788;7.318;2023-04-19T03:49:57;101660.31;;;10.44;80.65
43125;BME280;49182;50.788;7.318;2023-04-19T03:52:23;101658.09;;;10.51;80.55
43125;BME280;49182;50.788;7.318;2023-04-19T03:54:50;101652.38;;;10.57;80.19
43125;BME280;49182;50.788;7.318;2023-04-19T03:57:40;101648.03;;;10.56;80.09
43125;BME280;49182;50.788;7.318;2023-04-19T04:00:15;101659.25;;;10.60;80.03
43125;BME280;49182;50.788;7.318;2023-04-19T04:02:50;101657.47;;;10.60;79.82
43125;BME280;49182;50.788;7.318;2023-04-19T04:05:18;101666.94;;;10.63;80.05
43125;BME280;49182;50.788;7.318;2023-04-19T04:07:44;101662.16;;;10.68;79.55
43125;BME280;49182;50.788;7.318;2023-04-19T04:10:11;101625.47;;;10.52;78.86
43125;BME280;49182;50.788;7.318;2023-04-19T04:12:42;101660.78;;;10.75;78.77
43125;BME280;49182;50.788;7.318;2023-04-19T04:15:13;101656.84;;;10.80;78.26
43125;BME280;49182;50.788;7.318;2023-04-19T04:17:46;101654.09;;;10.82;77.89
43125;BME280;49182;50.788;7.318;2023-04-19T04:20:12;101647.28;;;10.79;78.12
43125;BME280;49182;50.788;7.318;2023-04-19T04:22:40;101658.25;;;10.86;77.41
43125;BME280;49182;50.788;7.318;2023-04-19T04:25:08;101639.03;;;10.71;77.49
43125;BME280;49182;50.788;7.318;2023-04-19T04:27:37;101651.56;;;10.80;77.61
43125;BME280;49182;50.788;7.318;2023-04-19T04:30:09;101618.88;;;10.58;77.78
43125;BME280;49182;50.788;7.318;2023-04-19T04:32:37;101665.09;;;10.88;77.30
43125;BME280;49182;50.788;7.318;2023-04-19T04:35:06;101662.88;;;10.82;77.72
43125;BME280;49182;50.788;7.318;2023-04-19T04:37:52;101643.13;;;10.75;77.63
43125;BME280;49182;50.788;7.318;2023-04-19T04:40:19;101655.72;;;10.72;78.36
43125;BME280;49182;50.788;7.318;2023-04-19T04:42:46;101665.88;;;10.78;78.26
43125;BME280;49182;50.788;7.318;2023-04-19T04:45:14;101658.56;;;10.81;78.07
43125;BME280;49182;50.788;7.318;2023-04-19T04:47:42;101647.88;;;10.83;77.83
43125;BME280;49182;50.788;7.318;2023-04-19T04:50:10;101640.19;;;10.80;77.50
43125;BME280;49182;50.788;7.318;2023-04-19T04:52:36;101650.75;;;10.80;78.17
43125;BME280;49182;50.788;7.318;2023-04-19T04:55:14;101653.66;;;10.88;77.91
43125;BME280;49182;50.788;7.318;2023-04-19T04:57:43;101653.78;;;10.86;77.40
43125;BME280;49182;50.788;7.318;2023-04-19T05:00:21;101647.44;;;10.89;77.60
43125;BME280;49182;50.788;7.318;2023-04-19T05:02:56;101646.09;;;10.83;78.01
43125;BME280;49182;50.788;7.318;2023-04-19T05:05:23;101647.03;;;10.82;78.09
43125;BME280;49182;50.788;7.318;2023-04-19T05:07:50;101636.41;;;10.71;78.56
43125;BME280;49182;50.788;7.318;2023-04-19T05:10:16;101655.59;;;10.86;78.54
43125;BME280;49182;50.788;7.318;2023-04-19T05:12:45;101664.75;;;10.93;78.41
43125;BME280;49182;50.788;7.318;2023-04-19T05:15:12;101665.50;;;10.95;78.40
43125;BME280;49182;50.788;7.318;2023-04-19T05:17:45;101648.63;;;10.85;77.89
43125;BME280;49182;50.788;7.318;2023-04-19T05:20:12;101661.91;;;10.96;77.75
43125;BME280;49182;50.788;7.318;2023-04-19T05:22:40;101651.94;;;11.00;77.64
43125;BME280;49182;50.788;7.318;2023-04-19T05:25:09;101648.44;;;10.99;77.07
43125;BME280;49182;50.788;7.318;2023-04-19T05:27:36;101657.00;;;11.03;77.10
43125;BME280;49182;50.788;7.318;2023-04-19T05:30:04;101657.22;;;11.00;77.62
43125;BME280;49182;50.788;7.318;2023-04-19T05:32:33;101657.00;;;11.03;77.12
43125;BME280;49182;50.788;7.318;2023-04-19T05:35:04;101658.56;;;11.05;76.76
43125;BME280;49182;50.788;7.318;2023-04-19T05:37:31;101646.34;;;11.04;77.10
43125;BME280;49182;50.788;7.318;2023-04-19T05:39:58;101657.13;;;11.01;77.13
43125;BME280;49182;50.788;7.318;2023-04-19T05:42:24;101647.19;;;11.05;76.40
43125;BME280;49182;50.788;7.318;2023-04-19T05:44:51;101645.75;;;11.12;76.10
43125;BME280;49182;50.788;7.318;2023-04-19T05:47:18;101629.09;;;10.99;75.98
43125;BME280;49182;50.788;7.318;2023-04-19T05:50:07;101639.63;;;11.11;75.69
43125;BME280;49182;50.788;7.318;2023-04-19T05:52:38;101633.72;;;11.08;76.11
43125;BME280;49182;50.788;7.318;2023-04-19T05:55:05;101634.03;;;11.16;75.31
43125;BME280;49182;50.788;7.318;2023-04-19T05:57:33;101641.44;;;11.11;76.11
43125;BME280;49182;50.788;7.318;2023-04-19T06:00:00;101640.38;;;11.13;76.40
43125;BME280;49182;50.788;7.318;2023-04-19T06:02:38;101643.28;;;11.21;75.58
43125;BME280;49182;50.788;7.318;2023-04-19T06:05:08;101640.53;;;11.23;75.32
43125;BME280;49182;50.788;7.318;2023-04-19T06:07:37;101645.38;;;11.29;74.34
43125;BME280;49182;50.788;7.318;2023-04-19T06:10:12;101645.25;;;11.30;73.83
43125;BME280;49182;50.788;7.318;2023-04-19T06:12:39;101659.31;;;11.31;73.33
43125;BME280;49182;50.788;7.318;2023-04-19T06:15:07;101649.94;;;11.27;73.41
43125;BME280;49182;50.788;7.318;2023-04-19T06:17:34;101655.31;;;11.25;72.61
43125;BME280;49182;50.788;7.318;2023-04-19T06:20:00;101652.56;;;11.27;72.37
43125;BME280;49182;50.788;7.318;2023-04-19T06:22:28;101649.19;;;11.25;72.49
43125;BME280;49182;50.788;7.318;2023-04-19T06:24:55;101622.75;;;11.01;73.18
43125;BME280;49182;50.788;7.318;2023-04-19T06:27:21;101648.84;;;11.29;72.48
43125;BME280;49182;50.788;7.318;2023-04-19T06:29:48;101647.56;;;11.35;71.77
43125;BME280;49182;50.788;7.318;2023-04-19T06:32:16;101649.13;;;11.38;71.07
43125;BME280;49182;50.788;7.318;2023-04-19T06:34:43;101646.25;;;11.41;71.37
43125;BME280;49182;50.788;7.318;2023-04-19T06:37:10;101645.81;;;11.47;70.73
43125;BME280;49182;50.788;7.318;2023-04-19T06:39:38;101638.72;;;11.47;70.52
43125;BME280;49182;50.788;7.318;2023-04-19T06:42:04;101636.09;;;11.58;68.64
43125;BME280;49182;50.788;7.318;2023-04-19T06:44:32;101642.94;;;11.61;68.85
43125;BME280;49182;50.788;7.318;2023-04-19T06:46:58;101637.81;;;11.59;69.44
43125;BME280;49182;50.788;7.318;2023-04-19T06:49:25;101640.56;;;11.69;67.82
43125;BME280;49182;50.788;7.318;2023-04-19T06:51:51;101632.25;;;11.62;67.18
43125;BME280;49182;50.788;7.318;2023-04-19T06:54:18;101636.38;;;11.66;67.88
43125;BME280;49182;50.788;7.318;2023-04-19T06:56:48;101636.72;;;11.73;67.41
43125;BME280;49182;50.788;7.318;2023-04-19T06:59:16;101627.53;;;11.79;66.52
43125;BME280;49182;50.788;7.318;2023-04-19T07:01:42;101634.16;;;11.84;66.56
43125;BME280;49182;50.788;7.318;2023-04-19T07:04:09;101631.16;;;11.89;66.39
43125;BME280;49182;50.788;7.318;2023-04-19T07:06:37;101622.38;;;11.88;66.26
43125;BME280;49182;50.788;7.318;2023-04-19T07:09:05;101629.16;;;12.03;64.76
43125;BME280;49182;50.788;7.318;2023-04-19T07:11:32;101623.22;;;12.00;66.20
43125;BME280;49182;50.788;7.318;2023-04-19T07:14:00;101621.69;;;12.08;66.32
43125;BME280;49182;50.788;7.318;2023-04-19T07:16:27;101617.25;;;12.20;66.58
43125;BME280;49182;50.788;7.318;2023-04-19T07:18:53;101613.63;;;12.32;65.20
43125;BME280;49182;50.788;7.318;2023-04-19T07:21:20;101618.19;;;12.41;65.50
43125;BME280;49182;50.788;7.318;2023-04-19T07:23:47;101617.34;;;12.52;63.83
43125;BME280;49182;50.788;7.318;2023-04-19T07:26:13;101617.47;;;12.50;64.66
43125;BME280;49182;50.788;7.318;2023-04-19T07:28:40;101615.88;;;12.59;63.53
43125;BME280;49182;50.788;7.318;2023-04-19T07:31:13;101617.22;;;12.65;63.48
43125;BME280;49182;50.788;7.318;2023-04-19T07:33:40;101614.31;;;12.68;63.78
43125;BME280;49182;50.788;7.318;2023-04-19T07:36:07;101612.47;;;12.79;63.02
43125;BME280;49182;50.788;7.318;2023-04-19T07:38:33;101609.16;;;12.98;61.60
43125;BME280;49182;50.788;7.318;2023-04-19T07:41:00;101606.28;;;13.01;62.11
43125;BME280;49182;50.788;7.318;2023-04-19T07:43:28;101580.72;;;13.00;61.78
43125;BME280;49182;50.788;7.318;2023-04-19T07:45:55;101596.44;;;13.24;62.31
43125;BME280;49182;50.788;7.318;2023-04-19T07:48:23;101602.31;;;13.27;61.02
43125;BME280;49182;50.788;7.318;2023-04-19T07:50:49;101602.31;;;13.39;58.52
43125;BME280;49182;50.788;7.318;2023-04-19T07:53:16;101605.81;;;13.39;59.14
43125;BME280;49182;50.788;7.318;2023-04-19T07:55:42;101594.78;;;13.44;58.59
43125;BME280;49182;50.788;7.318;2023-04-19T07:58:10;101604.16;;;13.48;59.12
43125;BME280;49182;50.788;7.318;2023-04-19T08:00:36;101598.66;;;13.60;57.91
43125;BME280;49182;50.788;7.318;2023-04-19T08:03:03;101602.09;;;13.72;56.68
43125;BME280;49182;50.788;7.318;2023-04-19T08:05:31;101590.38;;;13.74;55.82
43125;BME280;49182;50.788;7.318;2023-04-19T08:07:58;101596.25;;;13.78;56.61
43125;BME280;49182;50.788;7.318;2023-04-19T08:10:25;101567.06;;;13.78;55.98
43125;BME280;49182;50.788;7.318;2023-04-19T08:12:51;101593.84;;;13.96;54.47
43125;BME280;49182;50.788;7.318;2023-04-19T08:15:32;101587.31;;;14.00;55.50
43125;BME280;49182;50.788;7.318;2023-04-19T08:18:02;101583.97;;;14.07;54.12
43125;BME280;49182;50.788;7.318;2023-04-19T08:20:28;101584.69;;;14.09;55.18
43125;BME280;49182;50.788;7.318;2023-04-19T08:22:56;101574.50;;;14.14;53.83
43125;BME280;49182;50.788;7.318;2023-04-19T08:25:25;101585.63;;;14.29;51.38
43125;BME280;49182;50.788;7.318;2023-04-19T08:27:52;101587.72;;;14.26;52.33
43125;BME280;49182;50.788;7.318;2023-04-19T08:30:19;101532.09;;;13.94;52.75
43125;BME280;49182;50.788;7.318;2023-04-19T08:32:45;101585.06;;;14.35;51.93
43125;BME280;49182;50.788;7.318;2023-04-19T08:35:12;101576.03;;;14.38;51.65
43125;BME280;49182;50.788;7.318;2023-04-19T08:37:39;101574.19;;;14.38;53.00
43125;BME280;49182;50.788;7.318;2023-04-19T08:40:08;101574.50;;;14.45;53.42
43125;BME280;49182;50.788;7.318;2023-04-19T08:42:34;101571.75;;;14.56;51.88
43125;BME280;49182;50.788;7.318;2023-04-19T08:45:03;101576.47;;;14.52;51.67
43125;BME280;49182;50.788;7.318;2023-04-19T08:47:34;101559.00;;;14.50;51.50
43125;BME280;49182;50.788;7.318;2023-04-19T08:50:14;101571.75;;;14.56;52.07
43125;BME280;49182;50.788;7.318;2023-04-19T08:52:59;101567.53;;;14.63;51.56
43125;BME280;49182;50.788;7.318;2023-04-19T08:55:28;101560.88;;;14.69;50.80
43125;BME280;49182;50.788;7.318;2023-04-19T08:57:55;101547.03;;;14.75;47.86
43125;BME280;49182;50.788;7.318;2023-04-19T09:00:22;101552.06;;;14.78;49.43
43125;BME280;49182;50.788;7.318;2023-04-19T09:02:50;101560.31;;;14.84;47.82
43125;BME280;49182;50.788;7.318;2023-04-19T09:05:18;101561.28;;;14.83;48.80
43125;BME280;49182;50.788;7.318;2023-04-19T09:07:45;101548.56;;;14.87;47.92
43125;BME280;49182;50.788;7.318;2023-04-19T09:10:14;101549.13;;;14.90;48.50
43125;BME280;49182;50.788;7.318;2023-04-19T09:12:43;101538.47;;;14.90;47.98
43125;BME280;49182;50.788;7.318;2023-04-19T09:15:34;101530.63;;;14.89;47.53
43125;BME280;49182;50.788;7.318;2023-04-19T09:18:03;101537.94;;;14.96;48.59
43125;BME280;49182;50.788;7.318;2023-04-19T09:20:35;101515.66;;;14.88;46.19
43125;BME280;49182;50.788;7.318;2023-04-19T09:23:02;101548.84;;;15.22;45.85
43125;BME280;49182;50.788;7.318;2023-04-19T09:25:29;101543.69;;;15.11;44.31
43125;BME280;49182;50.788;7.318;2023-04-19T09:28:17;101543.09;;;15.08;45.60
43125;BME280;49182;50.788;7.318;2023-04-19T09:30:43;101548.84;;;15.03;46.47
43125;BME280;49182;50.788;7.318;2023-04-19T09:33:32;101542.69;;;15.03;43.96
43125;BME280;49182;50.788;7.318;2023-04-19T09:36:00;101544.66;;;15.10;45.48
43125;BME280;49182;50.788;7.318;2023-04-19T09:38:27;101539.19;;;15.12;46.88
43125;BME280;49182;50.788;7.318;2023-04-19T09:41:05;101534.97;;;15.28;46.11
43125;BME280;49182;50.788;7.318;2023-04-19T09:43:33;101541.09;;;15.38;45.36
43125;BME280;49182;50.788;7.318;2023-04-19T09:46:30;101533.00;;;15.40;44.82
43125;BME280;49182;50.788;7.318;2023-04-19T09:49:14;101530.59;;;15.47;44.65
43125;BME280;49182;50.788;7.318;2023-04-19T09:51:54;101524.13;;;15.49;43.80
43125;BME280;49182;50.788;7.318;2023-04-19T09:54:22;101520.53;;;15.41;45.36
43125;BME280;49182;50.788;7.318;2023-04-19T09:56:50;101494.19;;;15.37;44.66
43125;BME280;49182;50.788;7.318;2023-04-19T09:59:18;101519.94;;;15.56;45.78
43125;BME280;49182;50.788;7.318;2023-04-19T10:01:52;101474.84;;;15.45;46.43
43125;BME280;49182;50.788;7.318;2023-04-19T10:04:20;101500.41;;;15.75;45.63
43125;BME280;49182;50.788;7.318;2023-04-19T10:07:07;101503.31;;;15.91;44.69
43125;BME280;49182;50.788;7.318;2023-04-19T10:09:54;101499.50;;;15.94;43.37
43125;BME280;49182;50.788;7.318;2023-04-19T10:12:38;101500.59;;;16.01;44.04
43125;BME280;49182;50.788;7.318;2023-04-19T10:15:26;101495.06;;;16.12;44.68
43125;BME280;49182;50.788;7.318;2023-04-19T10:18:08;101495.69;;;16.24;42.96
43125;BME280;49182;50.788;7.318;2023-04-19T10:20:40;101489.22;;;16.26;43.09
43125;BME280;49182;50.788;7.318;2023-04-19T10:23:07;101493.50;;;16.37;43.12
43125;BME280;49182;50.788;7.318;2023-04-19T10:25:36;101467.44;;;16.31;42.90
43125;BME280;49182;50.788;7.318;2023-04-19T10:28:03;101489.34;;;16.52;42.87
43125;BME280;49182;50.788;7.318;2023-04-19T10:30:31;101484.72;;;16.54;42.22
43125;BME280;49182;50.788;7.318;2023-04-19T10:32:58;101476.31;;;16.49;43.04
43125;BME280;49182;50.788;7.318;2023-04-19T10:35:27;101478.91;;;16.58;41.77
43125;BME280;49182;50.788;7.318;2023-04-19T10:38:07;101476.38;;;16.57;40.65
43125;BME280;49182;50.788;7.318;2023-04-19T10:40:56;101474.28;;;16.61;39.54
43125;BME280;49182;50.788;7.318;2023-04-19T10:43:23;101459.03;;;16.53;38.57
43125;BME280;49182;50.788;7.318;2023-04-19T10:45:52;101459.41;;;16.58;41.12
43125;BME280;49182;50.788;7.318;2023-04-19T10:48:49;101471.09;;;16.75;41.03
43125;BME280;49182;50.788;7.318;2023-04-19T10:51:17;101458.44;;;16.77;37.53
43125;BME280;49182;50.788;7.318;2023-04-19T10:53:54;101453.72;;;16.71;37.55
43125;BME280;49182;50.788;7.318;2023-04-19T10:56:57;101451.94;;;16.79;38.34
43125;BME280;49182;50.788;7.318;2023-04-19T10:59:24;101449.56;;;16.94;36.59
43125;BME280;49182;50.788;7.318;2023-04-19T11:01:55;101454.28;;;17.00;33.24
43125;BME280;49182;50.788;7.318;2023-04-19T11:07:06;101427.09;;;16.79;34.89
43125;BME280;49182;50.788;7.318;2023-04-19T11:09:34;101425.50;;;16.86;34.80
43125;BME280;49182;50.788;7.318;2023-04-19T11:12:03;101436.44;;;17.01;36.29
43125;BME280;49182;50.788;7.318;2023-04-19T11:14:31;101443.72;;;17.16;35.35
43125;BME280;49182;50.788;7.318;2023-04-19T11:17:03;101439.91;;;17.19;35.60
43125;BME280;49182;50.788;7.318;2023-04-19T11:19:41;101441.22;;;17.15;35.31
43125;BME280;49182;50.788;7.318;2023-04-19T11:22:08;101430.84;;;17.12;35.68
43125;BME280;49182;50.788;7.318;2023-04-19T11:24:34;101425.72;;;17.18;36.83
43125;BME280;49182;50.788;7.318;2023-04-19T11:27:06;101397.47;;;17.33;37.42
43125;BME280;49182;50.788;7.318;2023-04-19T11:29:33;101421.63;;;17.58;38.18
43125;BME280;49182;50.788;7.318;2023-04-19T11:32:01;101413.59;;;17.58;37.81
43125;BME280;49182;50.788;7.318;2023-04-19T11:34:29;101410.75;;;17.59;37.27
43125;BME280;49182;50.788;7.318;2023-04-19T11:37:00;101413.84;;;17.64;36.11
43125;BME280;49182;50.788;7.318;2023-04-19T11:39:26;101421.41;;;17.51;35.18
43125;BME280;49182;50.788;7.318;2023-04-19T11:41:53;101409.78;;;17.34;36.58
43125;BME280;49182;50.788;7.318;2023-04-19T11:44:19;101403.66;;;17.34;37.30
43125;BME280;49182;50.788;7.318;2023-04-19T11:47:02;101419.03;;;17.40;36.50
43125;BME280;49182;50.788;7.318;2023-04-19T11:49:31;101406.69;;;17.39;36.44
43125;BME280;49182;50.788;7.318;2023-04-19T11:51:59;101400.91;;;17.60;36.88
43125;BME280;49182;50.788;7.318;2023-04-19T11:54:30;101402.19;;;17.73;34.81
43125;BME280;49182;50.788;7.318;2023-04-19T11:57:01;101402.03;;;17.75;33.12
43125;BME280;49182;50.788;7.318;2023-04-19T11:59:29;101407.38;;;17.75;33.14
43125;BME280;49182;50.788;7.318;2023-04-19T12:02:05;101408.00;;;17.69;33.74
43125;BME280;49182;50.788;7.318;2023-04-19T12:04:32;101397.41;;;17.59;33.48
43125;BME280;49182;50.788;7.318;2023-04-19T12:07:00;101398.72;;;17.55;32.20
43125;BME280;49182;50.788;7.318;2023-04-19T12:09:27;101399.38;;;17.49;32.59
43125;BME280;49182;50.788;7.318;2023-04-19T12:11:54;101398.66;;;17.39;31.87
43125;BME280;49182;50.788;7.318;2023-04-19T12:14:22;101387.16;;;17.38;33.93
43125;BME280;49182;50.788;7.318;2023-04-19T12:17:07;101388.53;;;17.51;32.81
43125;BME280;49182;50.788;7.318;2023-04-19T12:19:35;101383.78;;;17.62;30.82
43125;BME280;49182;50.788;7.318;2023-04-19T12:22:09;101380.50;;;17.76;30.96
43125;BME280;49182;50.788;7.318;2023-04-19T12:24:36;101384.66;;;17.79;30.54
43125;BME280;49182;50.788;7.318;2023-04-19T12:27:03;101377.63;;;17.78;32.43
43125;BME280;49182;50.788;7.318;2023-04-19T12:29:30;101381.16;;;17.78;32.14
43125;BME280;49182;50.788;7.318;2023-04-19T12:31:57;101379.66;;;17.84;30.61
43125;BME280;49182;50.788;7.318;2023-04-19T12:34:25;101374.50;;;17.83;29.08
43125;BME280;49182;50.788;7.318;2023-04-19T12:36:52;101375.31;;;17.75;29.81
43125;BME280;49182;50.788;7.318;2023-04-19T12:39:18;101373.47;;;17.75;29.35
43125;BME280;49182;50.788;7.318;2023-04-19T12:41:45;101372.66;;;17.83;30.23
43125;BME280;49182;50.788;7.318;2023-04-19T12:44:11;101372.03;;;17.89;28.44
43125;BME280;49182;50.788;7.318;2023-04-19T12:46:38;101378.81;;;17.75;27.71
43125;BME280;49182;50.788;7.318;2023-04-19T12:49:05;101373.47;;;17.75;26.41
43125;BME280;49182;50.788;7.318;2023-04-19T12:51:33;101381.50;;;17.75;28.45
43125;BME280;49182;50.788;7.318;2023-04-19T12:53:59;101376.34;;;17.90;27.14
43125;BME280;49182;50.788;7.318;2023-04-19T12:56:26;101361.00;;;17.92;26.64
43125;BME280;49182;50.788;7.318;2023-04-19T12:58:52;101355.97;;;17.81;25.25
43125;BME280;49182;50.788;7.318;2023-04-19T13:01:19;101363.47;;;17.86;26.78
43125;BME280;49182;50.788;7.318;2023-04-19T13:03:46;101352.00;;;18.09;26.28